TUI18H EDDF-LGIR
Flight info
| Callsign | TUI18H |
|---|---|
| Flight time | 2h 41m |
| Altitude | 37000 |
| Route | CINDY6F/25C CINDY Z74 LAMPU DCT NOMBO Y161 MAH DCT VAVOR DCT RADIZ DCT PINDO DCT KEA UL607 GIVIS T514 XAVIS |
| Aircraft | B38M/M-SDE1FGHILORVWXY/HB1 |
Departure
| Time | 2026-05-04 10:39 |
|---|---|
| Airport | Frankfurt Main Airport (EDDF) |
Arrival
| Time | 2026-05-04 13:21 |
|---|---|
| Airport | Heraklion International Nikos Kazantzakis Airport (LGIR) |
| Time | Latitude | Longitude | Altitude | Speed | Heading |
|---|---|---|---|---|---|
| 2026-05-04 10:08 | 50.05001 | 8.58428 | 362 ft | 0 kts | 340° |
| 2026-05-04 10:19 | 50.05000 | 8.58428 | 362 ft | 0 kts | 340° |
| 2026-05-04 10:25 | 50.04989 | 8.58435 | 365 ft | 4 kts | 337° |
| 2026-05-04 10:25 | 50.04965 | 8.58453 | 362 ft | 4 kts | 330° |
| 2026-05-04 10:26 | 50.04942 | 8.58476 | 364 ft | 4 kts | 323° |
| 2026-05-04 10:26 | 50.04923 | 8.58499 | 362 ft | 0 kts | 318° |
| 2026-05-04 10:27 | 50.04924 | 8.58498 | 362 ft | 0 kts | 319° |
| 2026-05-04 10:28 | 50.04913 | 8.58503 | 363 ft | 5 kts | 36° |
| 2026-05-04 10:28 | 50.04909 | 8.58499 | 363 ft | 0 kts | 60° |
| 2026-05-04 10:28 | 50.04901 | 8.58468 | 362 ft | 0 kts | 70° |
| 2026-05-04 10:29 | 50.04901 | 8.58469 | 362 ft | 0 kts | 70° |
| 2026-05-04 10:29 | 50.04905 | 8.58486 | 364 ft | 7 kts | 70° |
| 2026-05-04 10:30 | 50.04928 | 8.58579 | 364 ft | 3 kts | 70° |
| 2026-05-04 10:30 | 50.04932 | 8.58615 | 368 ft | 2 kts | 86° |
| 2026-05-04 10:30 | 50.04933 | 8.58620 | 366 ft | 1 kts | 85° |
| 2026-05-04 10:30 | 50.04912 | 8.58667 | 363 ft | 9 kts | 150° |
| 2026-05-04 10:31 | 50.04854 | 8.58702 | 368 ft | 8 kts | 160° |
| 2026-05-04 10:31 | 50.04803 | 8.58732 | 369 ft | 7 kts | 160° |
| 2026-05-04 10:32 | 50.04840 | 8.59241 | 372 ft | 9 kts | 71° |
| 2026-05-04 10:33 | 50.04817 | 8.59373 | 373 ft | 18 kts | 146° |
| 2026-05-04 10:33 | 50.04665 | 8.59454 | 375 ft | 30 kts | 169° |
| 2026-05-04 10:33 | 50.04439 | 8.59430 | 378 ft | 30 kts | 235° |
| 2026-05-04 10:33 | 50.04362 | 8.59111 | 379 ft | 33 kts | 249° |
| 2026-05-04 10:34 | 50.04275 | 8.58743 | 373 ft | 30 kts | 250° |
| 2026-05-04 10:34 | 50.04271 | 8.58626 | 372 ft | 6 kts | 322° |
| 2026-05-04 10:34 | 50.04310 | 8.58621 | 371 ft | 7 kts | 5° |
| 2026-05-04 10:34 | 50.04388 | 8.58634 | 372 ft | 16 kts | 7° |
| 2026-05-04 10:35 | 50.04484 | 8.58577 | 373 ft | 14 kts | 260° |
| 2026-05-04 10:35 | 50.04476 | 8.58543 | 373 ft | 0 kts | 250° |
| 2026-05-04 10:39 | 50.03650 | 8.55111 | 754 ft | 195 kts | 250° |
| 2026-05-04 10:39 | 50.03143 | 8.53033 | 1726 ft | 213 kts | 248° |
| 2026-05-04 10:39 | 50.02553 | 8.50832 | 2800 ft | 226 kts | 239° |
| 2026-05-04 10:40 | 50.01438 | 8.49192 | 3808 ft | 220 kts | 203° |
| 2026-05-04 10:40 | 49.99957 | 8.48969 | 4159 ft | 220 kts | 170° |
| 2026-05-04 10:40 | 49.98533 | 8.49844 | 4323 ft | 223 kts | 149° |
| 2026-05-04 10:40 | 49.97365 | 8.51472 | 4431 ft | 231 kts | 128° |
| 2026-05-04 10:41 | 49.96529 | 8.53620 | 5073 ft | 238 kts | 121° |
| 2026-05-04 10:41 | 49.95693 | 8.55962 | 5603 ft | 257 kts | 121° |
| 2026-05-04 10:41 | 49.94786 | 8.58484 | 6140 ft | 276 kts | 121° |
| 2026-05-04 10:41 | 49.93843 | 8.61091 | 6954 ft | 279 kts | 121° |
| 2026-05-04 10:42 | 49.92881 | 8.63743 | 7845 ft | 284 kts | 122° |
| 2026-05-04 10:42 | 49.91902 | 8.66433 | 8685 ft | 287 kts | 122° |
| 2026-05-04 10:42 | 49.90910 | 8.69153 | 9585 ft | 291 kts | 122° |
| 2026-05-04 10:42 | 49.89915 | 8.71880 | 10323 ft | 297 kts | 122° |
| 2026-05-04 10:43 | 49.88863 | 8.74762 | 10715 ft | 316 kts | 122° |
| 2026-05-04 10:44 | 49.80610 | 8.97245 | 15464 ft | 357 kts | 123° |
| 2026-05-04 10:45 | 49.79370 | 9.00609 | 16119 ft | 361 kts | 123° |
| 2026-05-04 10:45 | 49.78125 | 9.03978 | 16791 ft | 365 kts | 123° |
| 2026-05-04 10:45 | 49.76856 | 9.07416 | 17417 ft | 369 kts | 122° |
| 2026-05-04 10:45 | 49.75928 | 9.11111 | 18074 ft | 376 kts | 107° |
| 2026-05-04 10:46 | 49.75295 | 9.15064 | 18614 ft | 380 kts | 108° |
| 2026-05-04 10:46 | 49.74302 | 9.18840 | 19110 ft | 376 kts | 126° |
| 2026-05-04 10:46 | 49.72699 | 9.22021 | 19624 ft | 377 kts | 133° |
| 2026-05-04 10:46 | 49.70976 | 9.25098 | 20126 ft | 380 kts | 136° |
| 2026-05-04 10:47 | 49.69171 | 9.28093 | 20659 ft | 382 kts | 136° |
| 2026-05-04 10:47 | 49.67353 | 9.31132 | 21177 ft | 386 kts | 136° |
| 2026-05-04 10:47 | 49.65525 | 9.34193 | 21710 ft | 389 kts | 136° |
| 2026-05-04 10:47 | 49.63703 | 9.37245 | 22208 ft | 392 kts | 136° |
| 2026-05-04 10:49 | 49.50395 | 9.59448 | 25409 ft | 412 kts | 136° |
| 2026-05-04 10:49 | 49.48432 | 9.62707 | 25848 ft | 415 kts | 137° |
| 2026-05-04 10:50 | 49.46487 | 9.65932 | 26248 ft | 417 kts | 137° |
| 2026-05-04 10:51 | 49.32356 | 9.89240 | 28965 ft | 435 kts | 137° |
| 2026-05-04 10:52 | 49.30284 | 9.92641 | 29367 ft | 436 kts | 137° |
| 2026-05-04 10:52 | 49.28199 | 9.96057 | 29746 ft | 438 kts | 137° |
| 2026-05-04 10:52 | 49.26129 | 9.99444 | 30087 ft | 440 kts | 137° |
| 2026-05-04 10:54 | 49.11188 | 10.23767 | 32028 ft | 457 kts | 137° |
| 2026-05-04 10:54 | 49.09000 | 10.27308 | 32262 ft | 460 kts | 137° |
| 2026-05-04 10:56 | 48.93705 | 10.51937 | 34740 ft | 456 kts | 138° |
| 2026-05-04 10:56 | 48.91502 | 10.55465 | 35061 ft | 455 kts | 138° |
| 2026-05-04 10:56 | 48.89329 | 10.58941 | 35340 ft | 455 kts | 138° |
| 2026-05-04 10:57 | 48.87157 | 10.62409 | 35583 ft | 455 kts | 138° |
| 2026-05-04 10:57 | 48.84965 | 10.65905 | 35868 ft | 454 kts | 137° |
| 2026-05-04 10:57 | 48.82807 | 10.69343 | 36159 ft | 453 kts | 137° |
| 2026-05-04 10:57 | 48.80618 | 10.72823 | 36440 ft | 453 kts | 137° |
| 2026-05-04 10:58 | 48.78434 | 10.76293 | 36722 ft | 452 kts | 137° |
| 2026-05-04 10:58 | 48.76267 | 10.79731 | 37007 ft | 450 kts | 137° |
| 2026-05-04 10:58 | 48.74125 | 10.83124 | 37261 ft | 449 kts | 137° |
| 2026-05-04 10:58 | 48.71962 | 10.86546 | 37507 ft | 449 kts | 137° |
| 2026-05-04 10:59 | 48.69799 | 10.89964 | 37745 ft | 448 kts | 137° |
| 2026-05-04 10:59 | 48.67638 | 10.93373 | 37968 ft | 447 kts | 137° |
| 2026-05-04 10:59 | 48.65488 | 10.96762 | 38174 ft | 447 kts | 137° |
| 2026-05-04 10:59 | 48.63362 | 11.00107 | 38385 ft | 446 kts | 137° |
| 2026-05-04 11:00 | 48.61207 | 11.03494 | 38596 ft | 445 kts | 137° |
| 2026-05-04 11:01 | 48.46171 | 11.27004 | 39014 ft | 444 kts | 137° |
| 2026-05-04 11:02 | 48.44017 | 11.30354 | 39006 ft | 445 kts | 137° |
| 2026-05-04 11:05 | 48.11502 | 11.80407 | 38999 ft | 447 kts | 137° |
| 2026-05-04 11:06 | 48.07129 | 11.87066 | 39008 ft | 447 kts | 137° |
| 2026-05-04 11:06 | 48.02788 | 11.93658 | 38992 ft | 447 kts | 137° |
| 2026-05-04 11:10 | 47.72207 | 12.39630 | 38995 ft | 447 kts | 137° |
| 2026-05-04 11:12 | 47.54398 | 12.65223 | 38999 ft | 446 kts | 139° |
| 2026-05-04 11:12 | 47.49862 | 12.71520 | 38998 ft | 445 kts | 139° |
| 2026-05-04 11:13 | 47.45355 | 12.77761 | 39004 ft | 444 kts | 139° |
| 2026-05-04 11:13 | 47.40852 | 12.83981 | 39013 ft | 445 kts | 139° |
| 2026-05-04 11:14 | 47.36321 | 12.90225 | 39013 ft | 445 kts | 139° |
| 2026-05-04 11:16 | 47.18193 | 13.15050 | 39046 ft | 446 kts | 139° |
| 2026-05-04 11:16 | 47.14420 | 13.20188 | 39040 ft | 445 kts | 139° |
| 2026-05-04 11:17 | 47.09874 | 13.26363 | 39052 ft | 446 kts | 139° |
| 2026-05-04 11:19 | 46.91591 | 13.51048 | 39061 ft | 446 kts | 139° |
| 2026-05-04 11:19 | 46.87010 | 13.57195 | 39081 ft | 447 kts | 139° |
| 2026-05-04 11:20 | 46.82441 | 13.63311 | 39086 ft | 450 kts | 140° |
| 2026-05-04 11:20 | 46.77809 | 13.69498 | 39066 ft | 450 kts | 140° |
| 2026-05-04 11:22 | 46.59332 | 13.94024 | 39079 ft | 450 kts | 139° |
| 2026-05-04 11:23 | 46.54699 | 14.00137 | 39076 ft | 450 kts | 139° |
| 2026-05-04 11:25 | 46.38422 | 14.21496 | 39073 ft | 453 kts | 140° |
| 2026-05-04 11:25 | 46.33743 | 14.27605 | 39069 ft | 453 kts | 140° |
| 2026-05-04 11:27 | 46.12610 | 14.55004 | 39073 ft | 455 kts | 140° |
| 2026-05-04 11:28 | 46.07921 | 14.61043 | 39079 ft | 455 kts | 140° |
| 2026-05-04 11:28 | 46.03200 | 14.67111 | 39078 ft | 454 kts | 140° |
| 2026-05-04 11:29 | 45.98464 | 14.73182 | 39080 ft | 455 kts | 140° |
| 2026-05-04 11:29 | 45.93749 | 14.79212 | 39073 ft | 456 kts | 140° |
| 2026-05-04 11:33 | 45.60374 | 15.21490 | 39075 ft | 459 kts | 140° |
| 2026-05-04 11:33 | 45.55580 | 15.27505 | 39075 ft | 459 kts | 140° |
| 2026-05-04 11:34 | 45.50769 | 15.33529 | 39076 ft | 459 kts | 140° |
| 2026-05-04 11:34 | 45.45952 | 15.39544 | 39079 ft | 460 kts | 140° |
| 2026-05-04 11:35 | 45.41162 | 15.45513 | 39079 ft | 459 kts | 140° |
| 2026-05-04 11:35 | 45.36350 | 15.51493 | 39076 ft | 459 kts | 140° |
| 2026-05-04 11:36 | 45.31532 | 15.57469 | 39076 ft | 459 kts | 140° |
| 2026-05-04 11:36 | 45.26726 | 15.63414 | 39075 ft | 460 kts | 140° |
| 2026-05-04 11:37 | 45.21868 | 15.69410 | 39078 ft | 463 kts | 140° |
| 2026-05-04 11:37 | 45.17020 | 15.75380 | 39078 ft | 463 kts | 140° |
| 2026-05-04 11:38 | 45.12160 | 15.81351 | 39081 ft | 462 kts | 140° |
| 2026-05-04 11:38 | 45.07286 | 15.87326 | 39079 ft | 462 kts | 140° |
| 2026-05-04 11:39 | 45.02403 | 15.93296 | 39078 ft | 464 kts | 140° |
| 2026-05-04 11:41 | 44.85149 | 16.14281 | 39084 ft | 472 kts | 140° |
| 2026-05-04 11:41 | 44.80150 | 16.20329 | 39080 ft | 473 kts | 140° |
| 2026-05-04 11:42 | 44.75181 | 16.26328 | 39089 ft | 474 kts | 140° |
| 2026-05-04 11:42 | 44.70147 | 16.32389 | 39091 ft | 474 kts | 140° |
| 2026-05-04 11:43 | 44.65151 | 16.38392 | 39098 ft | 474 kts | 140° |
| 2026-05-04 11:43 | 44.60162 | 16.44371 | 39097 ft | 474 kts | 139° |
| 2026-05-04 11:44 | 44.55131 | 16.50387 | 39096 ft | 475 kts | 140° |
| 2026-05-04 11:44 | 44.50111 | 16.56375 | 39099 ft | 475 kts | 140° |
| 2026-05-04 11:45 | 44.45059 | 16.62388 | 39097 ft | 475 kts | 140° |
| 2026-05-04 11:45 | 44.40028 | 16.68360 | 39103 ft | 475 kts | 140° |
| 2026-05-04 11:46 | 44.34974 | 16.74347 | 39108 ft | 475 kts | 140° |
| 2026-05-04 11:46 | 44.29914 | 16.80326 | 39102 ft | 476 kts | 140° |
| 2026-05-04 11:47 | 44.24883 | 16.86259 | 39108 ft | 477 kts | 140° |
| 2026-05-04 11:47 | 44.19800 | 16.92237 | 39095 ft | 476 kts | 140° |
| 2026-05-04 11:48 | 44.14759 | 16.98153 | 39105 ft | 476 kts | 140° |
| 2026-05-04 11:48 | 44.09697 | 17.04080 | 39094 ft | 476 kts | 140° |
| 2026-05-04 11:49 | 44.04608 | 17.10024 | 39112 ft | 478 kts | 140° |
| 2026-05-04 11:49 | 43.99515 | 17.15960 | 39112 ft | 477 kts | 140° |
| 2026-05-04 11:50 | 43.94409 | 17.21896 | 39119 ft | 477 kts | 140° |
| 2026-05-04 11:50 | 43.89339 | 17.27776 | 39112 ft | 476 kts | 140° |
| 2026-05-04 11:51 | 43.84265 | 17.33648 | 39099 ft | 477 kts | 140° |
| 2026-05-04 11:51 | 43.79135 | 17.39573 | 39124 ft | 479 kts | 140° |
| 2026-05-04 11:52 | 43.74050 | 17.45430 | 39130 ft | 478 kts | 140° |
| 2026-05-04 11:52 | 43.68942 | 17.51301 | 39122 ft | 478 kts | 140° |
| 2026-05-04 11:53 | 43.63811 | 17.57185 | 39117 ft | 477 kts | 140° |
| 2026-05-04 11:53 | 43.58719 | 17.63011 | 39120 ft | 479 kts | 140° |
| 2026-05-04 11:55 | 43.38160 | 17.86399 | 39103 ft | 479 kts | 140° |
| 2026-05-04 11:56 | 43.33031 | 17.92202 | 39094 ft | 479 kts | 140° |
| 2026-05-04 11:56 | 43.27901 | 17.97991 | 39102 ft | 479 kts | 140° |
| 2026-05-04 11:57 | 43.22740 | 18.03801 | 39113 ft | 479 kts | 140° |
| 2026-05-04 11:57 | 43.17573 | 18.09607 | 39116 ft | 479 kts | 140° |
| 2026-05-04 11:58 | 43.12429 | 18.15374 | 39124 ft | 481 kts | 140° |
| 2026-05-04 11:58 | 43.07249 | 18.21167 | 39125 ft | 481 kts | 140° |
| 2026-05-04 11:59 | 43.02058 | 18.26960 | 39136 ft | 481 kts | 140° |
| 2026-05-04 11:59 | 42.96895 | 18.32708 | 39135 ft | 481 kts | 140° |
| 2026-05-04 12:00 | 42.91694 | 18.38486 | 39135 ft | 481 kts | 140° |
| 2026-05-04 12:00 | 42.86516 | 18.44227 | 39152 ft | 482 kts | 140° |
| 2026-05-04 12:01 | 42.81297 | 18.49999 | 39137 ft | 482 kts | 140° |
| 2026-05-04 12:02 | 42.63076 | 18.70049 | 39147 ft | 483 kts | 140° |
| 2026-05-04 12:03 | 42.57838 | 18.75784 | 39122 ft | 483 kts | 140° |
| 2026-05-04 12:03 | 42.53476 | 18.80551 | 39131 ft | 484 kts | 140° |
| 2026-05-04 12:04 | 42.47377 | 18.87200 | 39127 ft | 483 kts | 140° |
| 2026-05-04 12:04 | 42.43013 | 18.91948 | 39120 ft | 484 kts | 140° |
| 2026-05-04 12:05 | 42.37737 | 18.97676 | 39131 ft | 485 kts | 140° |
| 2026-05-04 12:05 | 42.32487 | 19.03363 | 39133 ft | 485 kts | 140° |
| 2026-05-04 12:06 | 42.27193 | 19.09086 | 39132 ft | 485 kts | 140° |
| 2026-05-04 12:06 | 42.21945 | 19.14746 | 39140 ft | 485 kts | 140° |
| 2026-05-04 12:07 | 42.16666 | 19.20426 | 39124 ft | 486 kts | 140° |
| 2026-05-04 12:07 | 42.11358 | 19.26124 | 39127 ft | 487 kts | 140° |
| 2026-05-04 12:08 | 42.06044 | 19.31819 | 39128 ft | 487 kts | 140° |
| 2026-05-04 12:08 | 42.00760 | 19.37467 | 39117 ft | 487 kts | 140° |
| 2026-05-04 12:09 | 41.95470 | 19.43110 | 39124 ft | 487 kts | 140° |
| 2026-05-04 12:09 | 41.90142 | 19.48782 | 39136 ft | 489 kts | 140° |
| 2026-05-04 12:10 | 41.84794 | 19.54461 | 39129 ft | 489 kts | 140° |
| 2026-05-04 12:10 | 41.79480 | 19.60092 | 39126 ft | 489 kts | 140° |
| 2026-05-04 12:11 | 41.74118 | 19.65762 | 39127 ft | 489 kts | 140° |
| 2026-05-04 12:11 | 41.68756 | 19.71420 | 39121 ft | 490 kts | 140° |
| 2026-05-04 12:12 | 41.63422 | 19.77036 | 39106 ft | 491 kts | 140° |
| 2026-05-04 12:12 | 41.58051 | 19.82679 | 39141 ft | 491 kts | 140° |
| 2026-05-04 12:14 | 41.36504 | 20.05190 | 39115 ft | 492 kts | 140° |
| 2026-05-04 12:15 | 41.31137 | 20.10768 | 39122 ft | 493 kts | 140° |
| 2026-05-04 12:15 | 41.25722 | 20.16384 | 39119 ft | 492 kts | 140° |
| 2026-05-04 12:16 | 41.20329 | 20.21964 | 39101 ft | 491 kts | 140° |
| 2026-05-04 12:16 | 41.14927 | 20.27544 | 39112 ft | 491 kts | 140° |
| 2026-05-04 12:17 | 41.09558 | 20.33078 | 39108 ft | 491 kts | 140° |
| 2026-05-04 12:17 | 41.04148 | 20.38643 | 39107 ft | 491 kts | 140° |
| 2026-05-04 12:18 | 40.98747 | 20.44186 | 39111 ft | 491 kts | 140° |
| 2026-05-04 12:18 | 40.93371 | 20.49694 | 39117 ft | 491 kts | 140° |
| 2026-05-04 12:19 | 40.87948 | 20.55237 | 39111 ft | 491 kts | 140° |
| 2026-05-04 12:19 | 40.82572 | 20.60720 | 39108 ft | 491 kts | 140° |
| 2026-05-04 12:20 | 40.77150 | 20.66239 | 39110 ft | 491 kts | 140° |
| 2026-05-04 12:20 | 40.71742 | 20.71752 | 39108 ft | 491 kts | 138° |
| 2026-05-04 12:21 | 40.66581 | 20.77557 | 39113 ft | 492 kts | 137° |
| 2026-05-04 12:21 | 40.61338 | 20.83375 | 39125 ft | 492 kts | 138° |
| 2026-05-04 12:22 | 40.56102 | 20.89165 | 39110 ft | 491 kts | 138° |
| 2026-05-04 12:22 | 40.50881 | 20.94925 | 39114 ft | 492 kts | 138° |
| 2026-05-04 12:23 | 40.45618 | 21.00720 | 39114 ft | 492 kts | 138° |
| 2026-05-04 12:23 | 40.40396 | 21.06458 | 39110 ft | 494 kts | 138° |
| 2026-05-04 12:24 | 40.35115 | 21.12248 | 39112 ft | 494 kts | 138° |
| 2026-05-04 12:24 | 40.29844 | 21.18015 | 39126 ft | 493 kts | 138° |
| 2026-05-04 12:25 | 40.24587 | 21.23754 | 39114 ft | 492 kts | 138° |
| 2026-05-04 12:25 | 40.19326 | 21.29486 | 39124 ft | 492 kts | 139° |
| 2026-05-04 12:26 | 40.14051 | 21.35221 | 39121 ft | 494 kts | 139° |
| 2026-05-04 12:26 | 40.08779 | 21.40942 | 39105 ft | 494 kts | 139° |
| 2026-05-04 12:27 | 40.03464 | 21.46696 | 39109 ft | 494 kts | 139° |
| 2026-05-04 12:27 | 39.98181 | 21.52403 | 39108 ft | 494 kts | 139° |
| 2026-05-04 12:28 | 39.92898 | 21.58100 | 39106 ft | 494 kts | 139° |
| 2026-05-04 12:28 | 39.87572 | 21.63830 | 39120 ft | 497 kts | 139° |
| 2026-05-04 12:29 | 39.82235 | 21.69561 | 39105 ft | 497 kts | 139° |
| 2026-05-04 12:29 | 39.76899 | 21.75278 | 39102 ft | 497 kts | 139° |
| 2026-05-04 12:30 | 39.71591 | 21.80953 | 39150 ft | 497 kts | 139° |
| 2026-05-04 12:30 | 39.66245 | 21.86658 | 39127 ft | 497 kts | 139° |
| 2026-05-04 12:31 | 39.60880 | 21.92371 | 39126 ft | 499 kts | 139° |
| 2026-05-04 12:31 | 39.55503 | 21.98085 | 39111 ft | 499 kts | 139° |
| 2026-05-04 12:32 | 39.47463 | 22.06606 | 39115 ft | 499 kts | 139° |
| 2026-05-04 12:33 | 39.42087 | 22.12291 | 39117 ft | 499 kts | 139° |
| 2026-05-04 12:33 | 39.36707 | 22.17966 | 39111 ft | 498 kts | 139° |
| 2026-05-04 12:34 | 39.31359 | 22.23597 | 39128 ft | 499 kts | 139° |
| 2026-05-04 12:34 | 39.25970 | 22.29259 | 39123 ft | 499 kts | 139° |
| 2026-05-04 12:35 | 39.20586 | 22.34904 | 39124 ft | 499 kts | 140° |
| 2026-05-04 12:35 | 39.15201 | 22.40539 | 39126 ft | 499 kts | 140° |
| 2026-05-04 12:36 | 39.09802 | 22.46178 | 39148 ft | 500 kts | 140° |
| 2026-05-04 12:36 | 39.04373 | 22.51835 | 39140 ft | 502 kts | 140° |
| 2026-05-04 12:37 | 38.98975 | 22.57451 | 39131 ft | 502 kts | 140° |
| 2026-05-04 12:37 | 38.93530 | 22.63101 | 39131 ft | 502 kts | 140° |
| 2026-05-04 12:38 | 38.88082 | 22.68744 | 39131 ft | 502 kts | 140° |
| 2026-05-04 12:38 | 38.82675 | 22.74334 | 39123 ft | 503 kts | 140° |
| 2026-05-04 12:39 | 38.77217 | 22.79966 | 39151 ft | 503 kts | 140° |
| 2026-05-04 12:39 | 38.71774 | 22.85569 | 39117 ft | 500 kts | 140° |
| 2026-05-04 12:40 | 38.66337 | 22.91155 | 39131 ft | 501 kts | 140° |
| 2026-05-04 12:40 | 38.60925 | 22.96705 | 39131 ft | 500 kts | 140° |
| 2026-05-04 12:41 | 38.55473 | 23.02283 | 39123 ft | 502 kts | 140° |
| 2026-05-04 12:41 | 38.50021 | 23.07853 | 39133 ft | 505 kts | 141° |
| 2026-05-04 12:42 | 38.44531 | 23.13450 | 39140 ft | 504 kts | 141° |
| 2026-05-04 12:42 | 38.39050 | 23.19025 | 39134 ft | 504 kts | 141° |
| 2026-05-04 12:43 | 38.33586 | 23.24572 | 39128 ft | 504 kts | 141° |
| 2026-05-04 12:43 | 38.28095 | 23.30136 | 39125 ft | 504 kts | 141° |
| 2026-05-04 12:44 | 38.22596 | 23.35696 | 39130 ft | 504 kts | 141° |
| 2026-05-04 12:44 | 38.17136 | 23.41206 | 39127 ft | 503 kts | 141° |
| 2026-05-04 12:45 | 38.11637 | 23.46745 | 39135 ft | 502 kts | 141° |
| 2026-05-04 12:45 | 38.06155 | 23.52256 | 39127 ft | 502 kts | 141° |
| 2026-05-04 12:46 | 38.00705 | 23.57724 | 39118 ft | 502 kts | 141° |
| 2026-05-04 12:46 | 37.95215 | 23.63221 | 39134 ft | 503 kts | 141° |
| 2026-05-04 12:47 | 37.89705 | 23.68727 | 39141 ft | 503 kts | 141° |
| 2026-05-04 12:47 | 37.84234 | 23.74184 | 39143 ft | 503 kts | 141° |
| 2026-05-04 12:48 | 37.78750 | 23.79643 | 39148 ft | 500 kts | 141° |
| 2026-05-04 12:48 | 37.73275 | 23.85082 | 39130 ft | 500 kts | 142° |
| 2026-05-04 12:49 | 37.67800 | 23.90511 | 39146 ft | 502 kts | 142° |
| 2026-05-04 12:49 | 37.62301 | 23.95954 | 39135 ft | 502 kts | 142° |
| 2026-05-04 12:50 | 37.56793 | 24.01394 | 39137 ft | 502 kts | 142° |
| 2026-05-04 12:50 | 37.51352 | 24.06759 | 38283 ft | 500 kts | 142° |
| 2026-05-04 12:50 | 37.48599 | 24.09469 | 37451 ft | 503 kts | 142° |
| 2026-05-04 12:51 | 37.45838 | 24.12185 | 36605 ft | 506 kts | 142° |
| 2026-05-04 12:51 | 37.43047 | 24.14928 | 35744 ft | 510 kts | 141° |
| 2026-05-04 12:51 | 37.40237 | 24.17686 | 35032 ft | 512 kts | 141° |
| 2026-05-04 12:51 | 37.37438 | 24.20430 | 34555 ft | 507 kts | 141° |
| 2026-05-04 12:52 | 37.35592 | 24.22239 | 34181 ft | 506 kts | 141° |
| 2026-05-04 12:52 | 37.31922 | 24.25831 | 33419 ft | 502 kts | 141° |
| 2026-05-04 12:52 | 37.30063 | 24.27648 | 33091 ft | 499 kts | 141° |
| 2026-05-04 12:52 | 37.26452 | 24.31176 | 32426 ft | 494 kts | 141° |
| 2026-05-04 12:53 | 37.23754 | 24.33809 | 31947 ft | 490 kts | 141° |
| 2026-05-04 12:53 | 37.21937 | 24.35582 | 31439 ft | 491 kts | 141° |
| 2026-05-04 12:53 | 37.19217 | 24.38232 | 30496 ft | 499 kts | 142° |
| 2026-05-04 12:53 | 37.16470 | 24.40906 | 29960 ft | 497 kts | 142° |
| 2026-05-04 12:54 | 37.13761 | 24.43542 | 29500 ft | 490 kts | 142° |
| 2026-05-04 12:54 | 37.11117 | 24.46112 | 29135 ft | 482 kts | 142° |
| 2026-05-04 12:54 | 37.08486 | 24.48665 | 28788 ft | 474 kts | 142° |
| 2026-05-04 12:54 | 37.05902 | 24.51172 | 28414 ft | 466 kts | 142° |
| 2026-05-04 12:55 | 37.03350 | 24.53645 | 28012 ft | 460 kts | 142° |
| 2026-05-04 12:55 | 37.00834 | 24.56081 | 27658 ft | 453 kts | 142° |
| 2026-05-04 12:55 | 36.98349 | 24.58485 | 27220 ft | 449 kts | 142° |
| 2026-05-04 12:55 | 36.95893 | 24.60860 | 26842 ft | 443 kts | 142° |
| 2026-05-04 12:56 | 36.93464 | 24.63206 | 26433 ft | 439 kts | 142° |
| 2026-05-04 12:56 | 36.91093 | 24.65493 | 26033 ft | 435 kts | 142° |
| 2026-05-04 12:56 | 36.88678 | 24.67822 | 25285 ft | 442 kts | 142° |
| 2026-05-04 12:56 | 36.86240 | 24.70171 | 24804 ft | 441 kts | 142° |
| 2026-05-04 12:57 | 36.83819 | 24.72503 | 24476 ft | 436 kts | 142° |
| 2026-05-04 12:57 | 36.81430 | 24.74801 | 24125 ft | 431 kts | 142° |
| 2026-05-04 12:57 | 36.79063 | 24.77076 | 23760 ft | 427 kts | 142° |
| 2026-05-04 12:57 | 36.76716 | 24.79330 | 23356 ft | 423 kts | 142° |
| 2026-05-04 12:58 | 36.74389 | 24.81562 | 22958 ft | 419 kts | 142° |
| 2026-05-04 12:58 | 36.72093 | 24.83763 | 22569 ft | 415 kts | 142° |
| 2026-05-04 12:58 | 36.69846 | 24.85917 | 22188 ft | 410 kts | 142° |
| 2026-05-04 12:58 | 36.67591 | 24.88076 | 21804 ft | 406 kts | 142° |
| 2026-05-04 12:59 | 36.65360 | 24.90210 | 21446 ft | 402 kts | 142° |
| 2026-05-04 12:59 | 36.63154 | 24.92320 | 21063 ft | 399 kts | 142° |
| 2026-05-04 12:59 | 36.60941 | 24.94432 | 20470 ft | 402 kts | 142° |
| 2026-05-04 12:59 | 36.58729 | 24.96544 | 20140 ft | 398 kts | 142° |
| 2026-05-04 13:00 | 36.56545 | 24.98628 | 19835 ft | 393 kts | 142° |
| 2026-05-04 13:00 | 36.54388 | 25.00683 | 19526 ft | 388 kts | 142° |
| 2026-05-04 13:00 | 36.52259 | 25.02711 | 19224 ft | 383 kts | 142° |
| 2026-05-04 13:00 | 36.50165 | 25.04704 | 18996 ft | 375 kts | 142° |
| 2026-05-04 13:01 | 36.48099 | 25.06669 | 18617 ft | 373 kts | 142° |
| 2026-05-04 13:01 | 36.46048 | 25.08619 | 18314 ft | 368 kts | 141° |
| 2026-05-04 13:01 | 36.44015 | 25.10550 | 17827 ft | 368 kts | 141° |
| 2026-05-04 13:01 | 36.41983 | 25.12478 | 17373 ft | 367 kts | 141° |
| 2026-05-04 13:02 | 36.39960 | 25.14396 | 16979 ft | 364 kts | 142° |
| 2026-05-04 13:02 | 36.37987 | 25.16267 | 16614 ft | 361 kts | 141° |
| 2026-05-04 13:02 | 36.35993 | 25.18157 | 16168 ft | 360 kts | 141° |
| 2026-05-04 13:02 | 36.34007 | 25.20036 | 15725 ft | 360 kts | 142° |
| 2026-05-04 13:03 | 36.32012 | 25.21924 | 15273 ft | 360 kts | 142° |
| 2026-05-04 13:03 | 36.30028 | 25.23799 | 14896 ft | 358 kts | 142° |
| 2026-05-04 13:03 | 36.28052 | 25.25667 | 14510 ft | 356 kts | 141° |
| 2026-05-04 13:03 | 36.26082 | 25.27526 | 14106 ft | 355 kts | 141° |
| 2026-05-04 13:04 | 36.24118 | 25.29379 | 13719 ft | 353 kts | 141° |
| 2026-05-04 13:04 | 36.22167 | 25.31219 | 13323 ft | 351 kts | 142° |
| 2026-05-04 13:04 | 36.20225 | 25.33049 | 12938 ft | 350 kts | 142° |
| 2026-05-04 13:04 | 36.18293 | 25.34868 | 12526 ft | 348 kts | 141° |
| 2026-05-04 13:05 | 36.16361 | 25.36686 | 12152 ft | 346 kts | 142° |
| 2026-05-04 13:05 | 36.14480 | 25.38456 | 11805 ft | 343 kts | 142° |
| 2026-05-04 13:05 | 36.12570 | 25.40203 | 11498 ft | 339 kts | 147° |
| 2026-05-04 13:05 | 36.10546 | 25.41660 | 11229 ft | 335 kts | 151° |
| 2026-05-04 13:06 | 36.08428 | 25.42793 | 10950 ft | 330 kts | 163° |
| 2026-05-04 13:06 | 36.06254 | 25.43664 | 10677 ft | 326 kts | 162° |
| 2026-05-04 13:06 | 36.04142 | 25.44592 | 10520 ft | 317 kts | 161° |
| 2026-05-04 13:06 | 36.02117 | 25.45525 | 10517 ft | 303 kts | 160° |
| 2026-05-04 13:07 | 36.00185 | 25.46435 | 10505 ft | 290 kts | 160° |
| 2026-05-04 13:07 | 35.98328 | 25.47321 | 10499 ft | 287 kts | 160° |
| 2026-05-04 13:07 | 35.96422 | 25.48238 | 10504 ft | 299 kts | 160° |
| 2026-05-04 13:07 | 35.94485 | 25.49174 | 10515 ft | 305 kts | 159° |
| 2026-05-04 13:08 | 35.92502 | 25.50134 | 10518 ft | 305 kts | 159° |
| 2026-05-04 13:08 | 35.90560 | 25.51075 | 10486 ft | 295 kts | 159° |
| 2026-05-04 13:08 | 35.88650 | 25.52000 | 9962 ft | 297 kts | 159° |
| 2026-05-04 13:08 | 35.86695 | 25.52947 | 9117 ft | 307 kts | 159° |
| 2026-05-04 13:09 | 35.84681 | 25.53922 | 8655 ft | 311 kts | 159° |
| 2026-05-04 13:09 | 35.82681 | 25.54889 | 8377 ft | 307 kts | 159° |
| 2026-05-04 13:09 | 35.80696 | 25.55849 | 8070 ft | 305 kts | 160° |
| 2026-05-04 13:09 | 35.78737 | 25.56796 | 7521 ft | 303 kts | 160° |
| 2026-05-04 13:10 | 35.76780 | 25.57742 | 7012 ft | 300 kts | 160° |
| 2026-05-04 13:10 | 35.74842 | 25.58678 | 6494 ft | 298 kts | 160° |
| 2026-05-04 13:10 | 35.72917 | 25.59607 | 5960 ft | 296 kts | 160° |
| 2026-05-04 13:10 | 35.71020 | 25.60522 | 5557 ft | 289 kts | 160° |
| 2026-05-04 13:11 | 35.69169 | 25.61415 | 5396 ft | 282 kts | 160° |
| 2026-05-04 13:11 | 35.67375 | 25.62279 | 5298 ft | 272 kts | 160° |
| 2026-05-04 13:11 | 35.65629 | 25.63120 | 5076 ft | 268 kts | 160° |
| 2026-05-04 13:11 | 35.63828 | 25.63632 | 4720 ft | 264 kts | 187° |
| 2026-05-04 13:12 | 35.62140 | 25.62998 | 4556 ft | 256 kts | 217° |
| 2026-05-04 13:12 | 35.60721 | 25.61638 | 4522 ft | 258 kts | 224° |
| 2026-05-04 13:12 | 35.59333 | 25.60272 | 4479 ft | 260 kts | 224° |
| 2026-05-04 13:12 | 35.57886 | 25.58891 | 4431 ft | 260 kts | 223° |
| 2026-05-04 13:13 | 35.56465 | 25.57555 | 4378 ft | 260 kts | 223° |
| 2026-05-04 13:13 | 35.55024 | 25.56214 | 4325 ft | 260 kts | 222° |
| 2026-05-04 13:13 | 35.53578 | 25.54878 | 4288 ft | 260 kts | 221° |
| 2026-05-04 13:13 | 35.52134 | 25.53550 | 4240 ft | 259 kts | 222° |
| 2026-05-04 13:14 | 35.50686 | 25.52220 | 4177 ft | 259 kts | 221° |
| 2026-05-04 13:14 | 35.49245 | 25.50900 | 4140 ft | 258 kts | 221° |
| 2026-05-04 13:14 | 35.47808 | 25.49584 | 4077 ft | 258 kts | 223° |
| 2026-05-04 13:14 | 35.46372 | 25.48269 | 4043 ft | 257 kts | 222° |
| 2026-05-04 13:15 | 35.44939 | 25.46960 | 4011 ft | 253 kts | 223° |
| 2026-05-04 13:15 | 35.43560 | 25.45697 | 3984 ft | 241 kts | 223° |
| 2026-05-04 13:15 | 35.42250 | 25.44497 | 3908 ft | 230 kts | 222° |
| 2026-05-04 13:15 | 35.40989 | 25.43347 | 3812 ft | 221 kts | 223° |
| 2026-05-04 13:16 | 35.39779 | 25.42241 | 3673 ft | 213 kts | 223° |
| 2026-05-04 13:16 | 35.38593 | 25.41154 | 3577 ft | 216 kts | 222° |
| 2026-05-04 13:16 | 35.37368 | 25.40038 | 3483 ft | 221 kts | 221° |
| 2026-05-04 13:16 | 35.36172 | 25.38951 | 3420 ft | 211 kts | 223° |
| 2026-05-04 13:17 | 35.35016 | 25.37901 | 3305 ft | 200 kts | 223° |
| 2026-05-04 13:17 | 35.33926 | 25.36909 | 3123 ft | 192 kts | 224° |
| 2026-05-04 13:17 | 35.33154 | 25.35693 | 2805 ft | 175 kts | 259° |
| 2026-05-04 13:17 | 35.33046 | 25.34282 | 2564 ft | 161 kts | 277° |
| 2026-05-04 13:18 | 35.33076 | 25.32933 | 2381 ft | 157 kts | 277° |
| 2026-05-04 13:18 | 35.33119 | 25.31628 | 2250 ft | 155 kts | 278° |
| 2026-05-04 13:18 | 35.33176 | 25.30318 | 2030 ft | 152 kts | 279° |
| 2026-05-04 13:18 | 35.33241 | 25.29015 | 1830 ft | 154 kts | 279° |
| 2026-05-04 13:19 | 35.33307 | 25.27728 | 1580 ft | 150 kts | 281° |
| 2026-05-04 13:19 | 35.33388 | 25.26468 | 1343 ft | 150 kts | 279° |
| 2026-05-04 13:19 | 35.33474 | 25.25182 | 1080 ft | 154 kts | 279° |
| 2026-05-04 13:19 | 35.33571 | 25.23851 | 856 ft | 158 kts | 277° |
| 2026-05-04 13:20 | 35.33651 | 25.22564 | 713 ft | 144 kts | 278° |
| 2026-05-04 13:20 | 35.33735 | 25.21370 | 537 ft | 136 kts | 279° |
| 2026-05-04 13:20 | 35.33815 | 25.20246 | 362 ft | 133 kts | 278° |
| 2026-05-04 13:20 | 35.33895 | 25.19134 | 140 ft | 130 kts | 280° |
| 2026-05-04 13:21 | 35.33967 | 25.18166 | 95 ft | 81 kts | 275° |
| 2026-05-04 13:21 | 35.33995 | 25.17737 | 95 ft | 38 kts | 275° |
| 2026-05-04 13:21 | 35.34018 | 25.17400 | 93 ft | 41 kts | 275° |
| 2026-05-04 13:21 | 35.33990 | 25.17091 | 94 ft | 23 kts | 246° |
| 2026-05-04 13:22 | 35.33942 | 25.17073 | 94 ft | 7 kts | 94° |
| 2026-05-04 13:22 | 35.33937 | 25.17142 | 93 ft | 10 kts | 95° |
| 2026-05-04 13:22 | 35.33930 | 25.17233 | 93 ft | 12 kts | 95° |
| 2026-05-04 13:22 | 35.33921 | 25.17345 | 93 ft | 13 kts | 102° |
| 2026-05-04 13:23 | 35.33868 | 25.17376 | 96 ft | 10 kts | 178° |
| 2026-05-04 13:23 | 35.33847 | 25.17367 | 95 ft | 0 kts | 235° |
| 2026-05-04 13:23 | 35.33844 | 25.17356 | 94 ft | 3 kts | 258° |
| 2026-05-04 13:23 | 35.33845 | 25.17331 | 94 ft | 3 kts | 275° |
| 2026-05-04 13:24 | 35.33852 | 25.17315 | 95 ft | 4 kts | 306° |
| 2026-05-04 13:24 | 35.33869 | 25.17292 | 95 ft | 2 kts | 315° |
| 2026-05-04 13:24 | 35.33870 | 25.17290 | 93 ft | 0 kts | 315° |
| 2026-05-04 13:25 | 35.33870 | 25.17291 | 93 ft | 0 kts | 315° |